createdAt,value
2024-05-09T00:00:38.692Z,41.07
2024-05-09T00:03:08.266Z,40.83
2024-05-09T00:05:36.551Z,40.91
2024-05-09T00:08:04.820Z,40.75
2024-05-09T00:10:37.547Z,40.79
2024-05-09T00:13:07.149Z,40.97
2024-05-09T00:15:34.939Z,41.13
2024-05-09T00:18:02.866Z,40.94
2024-05-09T00:20:37.470Z,41.16
2024-05-09T00:23:08.176Z,41.23
2024-05-09T00:25:38.421Z,41.00
2024-05-09T00:28:06.263Z,41.17
2024-05-09T00:30:35.944Z,40.82
2024-05-09T00:33:05.377Z,40.98
2024-05-09T00:35:33.421Z,40.97
2024-05-09T00:38:00.808Z,41.09
2024-05-09T00:40:38.768Z,41.00
2024-05-09T00:43:12.303Z,40.80
2024-05-09T00:45:40.106Z,40.98
2024-05-09T00:48:09.490Z,40.93
2024-05-09T00:50:40.096Z,40.87
2024-05-09T00:53:10.775Z,40.90
2024-05-09T00:55:38.875Z,41.14
2024-05-09T00:58:11.951Z,40.82
2024-05-09T01:00:41.357Z,40.83
2024-05-09T01:03:11.111Z,40.68
2024-05-09T01:05:40.357Z,41.03
2024-05-09T01:08:08.937Z,40.94
2024-05-09T01:10:36.753Z,40.91
2024-05-09T01:13:04.926Z,40.98
2024-05-09T01:15:35.777Z,40.85
2024-05-09T01:18:10.567Z,40.90
2024-05-09T01:20:42.364Z,41.00
2024-05-09T01:23:16.021Z,40.99
2024-05-09T01:25:44.181Z,40.93
2024-05-09T01:28:11.305Z,41.14
2024-05-09T01:30:38.738Z,40.94
2024-05-09T01:33:08.885Z,41.21
2024-05-09T01:35:37.871Z,40.79
2024-05-09T01:38:05.120Z,41.12
2024-05-09T01:40:38.610Z,41.03
2024-05-09T01:43:07.581Z,40.91
2024-05-09T01:45:34.594Z,40.93
2024-05-09T01:48:02.270Z,41.04
2024-05-09T01:50:37.860Z,40.83
2024-05-09T01:53:08.331Z,40.80
2024-05-09T01:55:37.996Z,41.00
2024-05-09T01:58:05.488Z,40.96
2024-05-09T02:00:38.911Z,40.83
2024-05-09T02:03:09.255Z,41.11
2024-05-09T02:05:39.203Z,40.95
2024-05-09T02:08:07.095Z,40.96
2024-05-09T02:10:33.971Z,40.94
2024-05-09T02:13:03.630Z,41.01
2024-05-09T02:15:30.399Z,41.12
2024-05-09T02:17:57.415Z,40.99
2024-05-09T02:20:33.449Z,40.99
2024-05-09T02:23:04.043Z,40.87
2024-05-09T02:25:32.018Z,40.93
2024-05-09T02:27:59.224Z,40.95
2024-05-09T02:30:38.162Z,40.94
2024-05-09T02:33:08.719Z,41.01
2024-05-09T02:35:36.492Z,40.74
2024-05-09T02:38:03.922Z,40.93
2024-05-09T02:40:36.783Z,40.77
2024-05-09T02:43:05.937Z,41.10
2024-05-09T02:45:35.550Z,40.88
2024-05-09T02:48:02.800Z,40.96
2024-05-09T02:50:37.031Z,40.98
2024-05-09T02:53:06.692Z,41.00
2024-05-09T02:55:33.977Z,41.00
2024-05-09T02:58:00.814Z,40.91
2024-05-09T03:00:36.649Z,40.83
2024-05-09T03:03:12.066Z,40.95
2024-05-09T03:05:41.130Z,41.08
2024-05-09T03:08:08.311Z,40.93
2024-05-09T03:10:37.758Z,40.89
2024-05-09T03:13:06.880Z,40.94
2024-05-09T03:15:33.693Z,41.05
2024-05-09T03:18:00.745Z,40.96
2024-05-09T03:20:34.456Z,41.22
2024-05-09T03:23:03.764Z,41.12
2024-05-09T03:25:30.939Z,41.05
2024-05-09T03:27:57.848Z,41.03
2024-05-09T03:30:31.195Z,41.04
2024-05-09T03:33:10.001Z,40.98
2024-05-09T03:35:39.620Z,41.04
2024-05-09T03:38:06.593Z,41.01
2024-05-09T03:40:33.401Z,40.85
2024-05-09T03:43:00.292Z,41.18
2024-05-09T03:45:27.194Z,41.05
2024-05-09T03:47:54.250Z,41.06
2024-05-09T03:50:29.444Z,40.96
2024-05-09T03:53:03.106Z,41.12
2024-05-09T03:55:30.036Z,41.05
2024-05-09T03:57:57.210Z,40.97
2024-05-09T04:00:31.324Z,40.94
2024-05-09T04:03:06.091Z,40.76
2024-05-09T04:05:35.026Z,40.97
2024-05-09T04:08:05.414Z,40.90
2024-05-09T04:10:34.232Z,40.81
2024-05-09T04:13:02.427Z,40.93
2024-05-09T04:15:29.567Z,40.99
2024-05-09T04:17:56.740Z,40.92
2024-05-09T04:20:35.559Z,40.90
2024-05-09T04:23:11.934Z,40.88
2024-05-09T04:25:41.659Z,40.97
2024-05-09T04:28:08.595Z,40.96
2024-05-09T04:30:39.262Z,40.91
2024-05-09T04:33:11.331Z,40.97
2024-05-09T04:35:40.606Z,41.04
2024-05-09T04:38:10.882Z,41.07
2024-05-09T04:40:38.192Z,41.04
2024-05-09T04:43:06.798Z,41.12
2024-05-09T04:45:34.201Z,40.82
2024-05-09T04:48:01.669Z,40.85
2024-05-09T04:50:36.571Z,41.10
2024-05-09T04:53:06.714Z,41.01
2024-05-09T04:55:36.828Z,41.08
2024-05-09T04:58:03.945Z,40.89
2024-05-09T05:00:36.395Z,41.05
2024-05-09T05:03:07.187Z,40.95
2024-05-09T05:05:37.810Z,40.82
2024-05-09T05:08:05.684Z,40.73
2024-05-09T05:10:36.248Z,40.99
2024-05-09T05:13:06.569Z,40.80
2024-05-09T05:15:33.442Z,41.01
2024-05-09T05:18:00.396Z,40.97
2024-05-09T05:20:33.046Z,40.78
2024-05-09T05:23:01.123Z,41.14
2024-05-09T05:25:28.037Z,40.90
2024-05-09T05:27:54.903Z,40.88
2024-05-09T05:30:29.108Z,40.99
2024-05-09T05:33:01.269Z,40.86
2024-05-09T05:35:28.425Z,40.79
2024-05-09T05:37:55.546Z,40.96
2024-05-09T05:40:28.703Z,41.04
2024-05-09T05:43:02.670Z,40.90
2024-05-09T05:45:32.115Z,40.89
2024-05-09T05:47:59.093Z,40.91
2024-05-09T05:50:32.531Z,41.02
2024-05-09T05:53:03.518Z,41.07
2024-05-09T05:55:30.489Z,40.95
2024-05-09T05:57:57.371Z,41.13
2024-05-09T06:02:56.643Z,41.01
2024-05-09T06:05:25.926Z,40.93
2024-05-09T06:07:54.085Z,40.96
2024-05-09T06:10:25.694Z,41.07
2024-05-09T06:12:56.834Z,41.01
2024-05-09T06:15:23.820Z,40.99
2024-05-09T06:17:50.723Z,40.84
2024-05-09T06:20:24.219Z,41.08
2024-05-09T06:22:58.920Z,41.05
2024-05-09T06:25:25.714Z,40.93
2024-05-09T06:27:52.545Z,41.05
2024-05-09T06:30:29.521Z,41.07
2024-05-09T06:33:02.113Z,41.00
2024-05-09T06:35:31.876Z,40.92
2024-05-09T06:37:58.834Z,40.97
2024-05-09T06:40:34.077Z,40.96
2024-05-09T06:43:04.817Z,41.00
2024-05-09T06:45:31.651Z,40.83
2024-05-09T06:47:58.541Z,41.17
2024-05-09T06:50:28.523Z,40.95
2024-05-09T06:53:05.042Z,40.88
2024-05-09T06:55:31.937Z,41.03
2024-05-09T06:57:58.837Z,41.22
2024-05-09T07:00:34.562Z,40.77
2024-05-09T07:03:07.969Z,41.04
2024-05-09T07:05:35.132Z,40.91
2024-05-09T07:08:06.012Z,40.90
2024-05-09T07:10:35.477Z,40.86
2024-05-09T07:13:03.264Z,41.17
2024-05-09T07:15:30.113Z,41.03
2024-05-09T07:17:57.146Z,40.84
2024-05-09T07:20:32.290Z,41.02
2024-05-09T07:23:04.757Z,40.96
2024-05-09T07:25:31.749Z,40.88
2024-05-09T07:27:58.650Z,41.19
2024-05-09T07:30:32.825Z,41.02
2024-05-09T07:33:02.315Z,40.94
2024-05-09T07:35:30.026Z,40.93
2024-05-09T07:37:57.306Z,40.80
2024-05-09T07:40:33.375Z,41.06
2024-05-09T07:43:03.517Z,40.98
2024-05-09T07:45:47.404Z,41.01
2024-05-09T07:53:38.433Z,40.69
2024-05-09T07:56:10.125Z,40.82
2024-05-09T07:58:38.141Z,40.89
2024-05-09T08:01:05.733Z,40.89
2024-05-09T08:03:32.984Z,40.78
2024-05-09T08:05:59.945Z,40.88
2024-05-09T08:08:26.769Z,40.99
2024-05-09T08:10:53.727Z,41.06
2024-05-09T08:13:23.340Z,41.15
2024-05-09T08:15:50.272Z,40.96
2024-05-09T08:18:17.246Z,40.85
2024-05-09T08:20:49.388Z,40.93
2024-05-09T08:23:16.207Z,40.80
2024-05-09T08:25:42.974Z,41.12
2024-05-09T08:28:11.050Z,40.90
2024-05-09T08:30:40.777Z,41.17
2024-05-09T08:33:08.086Z,41.01
2024-05-09T08:35:35.508Z,40.91
2024-05-09T08:38:03.000Z,40.82
2024-05-09T08:40:34.862Z,40.91
2024-05-09T08:43:07.499Z,40.77
2024-05-09T08:45:35.500Z,41.08
2024-05-09T08:48:08.451Z,40.71
2024-05-09T08:50:40.358Z,40.93
2024-05-09T08:53:08.451Z,40.87
2024-05-09T08:55:37.276Z,40.84
2024-05-09T08:58:07.667Z,40.86
2024-05-09T09:00:37.712Z,40.85
2024-05-09T09:03:10.149Z,40.62
2024-05-09T09:05:39.898Z,41.63
2024-05-09T09:08:08.519Z,41.27
2024-05-09T09:10:37.891Z,41.33
2024-05-09T09:13:05.621Z,41.58
2024-05-09T09:15:33.019Z,41.26
2024-05-09T09:18:00.837Z,41.31
2024-05-09T09:20:36.226Z,40.99
2024-05-09T09:23:04.524Z,41.07
2024-05-09T09:25:32.019Z,41.38
2024-05-09T09:27:59.603Z,41.09
2024-05-09T09:30:34.911Z,41.31
2024-05-09T09:33:05.387Z,41.25
2024-05-09T09:35:36.146Z,41.11
2024-05-09T09:38:03.741Z,41.33
2024-05-09T09:40:37.113Z,41.06
2024-05-09T09:43:14.564Z,41.17
2024-05-09T09:45:44.059Z,40.84
2024-05-09T09:48:14.586Z,41.08
2024-05-09T09:50:45.255Z,41.05
2024-05-09T09:53:14.096Z,40.99
2024-05-09T09:55:41.892Z,41.13
2024-05-09T09:58:13.350Z,41.06
2024-05-09T10:00:42.155Z,40.94
2024-05-09T10:03:09.842Z,40.89
2024-05-09T10:05:38.302Z,40.88
2024-05-09T10:08:10.375Z,40.89
2024-05-09T10:10:37.442Z,41.18
2024-05-09T10:13:05.357Z,41.09
2024-05-09T10:15:43.469Z,41.08
2024-05-09T10:18:10.472Z,41.04
2024-05-09T10:20:41.327Z,41.19
2024-05-09T10:23:28.483Z,40.86
2024-05-09T10:25:57.013Z,40.88
2024-05-09T10:28:26.188Z,41.03
2024-05-09T10:31:02.111Z,40.92
2024-05-09T10:33:36.719Z,40.78
2024-05-09T10:36:03.980Z,41.16
2024-05-09T10:38:36.397Z,40.93
2024-05-09T10:41:03.781Z,40.99
2024-05-09T10:43:31.377Z,40.89
2024-05-09T10:45:58.320Z,41.03
2024-05-09T10:48:26.481Z,41.24
2024-05-09T10:50:53.493Z,41.20
2024-05-09T10:53:20.317Z,41.80
2024-05-09T10:55:58.442Z,41.66
2024-05-09T10:58:25.707Z,41.33
2024-05-09T11:00:54.249Z,41.15
2024-05-09T11:03:23.229Z,41.00
2024-05-09T11:05:51.028Z,41.20
2024-05-09T11:08:19.442Z,41.26
2024-05-09T11:10:46.853Z,41.68
2024-05-09T11:13:26.470Z,41.83
2024-05-09T11:15:53.406Z,41.90
2024-05-09T11:18:24.746Z,41.89
2024-05-09T11:20:53.662Z,41.89
2024-05-09T11:23:22.908Z,41.89
2024-05-09T11:25:50.442Z,41.86
2024-05-09T11:28:21.243Z,41.62
2024-05-09T11:30:49.278Z,41.68
2024-05-09T11:33:18.396Z,41.92
2024-05-09T11:35:46.903Z,41.80
2024-05-09T11:38:14.381Z,41.58
2024-05-09T11:40:41.468Z,41.60
2024-05-09T11:43:08.722Z,41.73
2024-05-09T11:45:38.357Z,41.49
2024-05-09T11:48:05.943Z,41.57
2024-05-09T11:50:35.744Z,41.62
2024-05-09T11:53:03.287Z,41.47
2024-05-09T11:55:30.213Z,41.64
2024-05-09T11:57:57.528Z,41.56
2024-05-09T12:00:33.879Z,41.45
2024-05-09T12:03:06.708Z,41.74
2024-05-09T12:05:34.479Z,41.30
2024-05-09T12:08:01.759Z,41.37
2024-05-09T12:10:33.603Z,41.45
2024-05-09T12:13:03.804Z,41.40
2024-05-09T12:15:32.357Z,41.61
2024-05-09T12:18:02.696Z,41.44
2024-05-09T12:20:38.246Z,41.65
2024-05-09T12:23:08.860Z,41.81
2024-05-09T12:25:38.003Z,41.79
2024-05-09T12:28:05.598Z,41.71
2024-05-09T12:30:37.465Z,41.72
2024-05-09T12:33:07.686Z,41.70
2024-05-09T12:35:37.763Z,42.20
2024-05-09T12:38:05.098Z,41.99
2024-05-09T12:40:36.733Z,42.02
2024-05-09T12:43:06.461Z,42.05
2024-05-09T12:45:33.674Z,41.94
2024-05-09T12:48:00.886Z,42.03
2024-05-09T12:50:32.758Z,41.86
2024-05-09T12:53:04.831Z,42.18
2024-05-09T12:55:40.392Z,42.06
2024-05-09T12:58:15.640Z,42.08
2024-05-09T13:00:42.896Z,41.93
2024-05-09T13:03:09.901Z,41.99
2024-05-09T13:05:37.159Z,42.31
2024-05-09T13:08:07.499Z,42.08
2024-05-09T13:10:34.475Z,42.10
2024-05-09T13:13:02.226Z,42.22
2024-05-09T13:15:29.722Z,41.99
2024-05-09T13:18:00.173Z,42.04
2024-05-09T13:20:33.238Z,42.23
2024-05-09T13:23:03.139Z,42.10
2024-05-09T13:25:32.566Z,42.16
2024-05-09T13:27:59.514Z,42.17
2024-05-09T13:30:35.130Z,42.11
2024-05-09T13:33:07.317Z,41.73
2024-05-09T13:35:35.321Z,41.58
2024-05-09T13:38:04.168Z,41.55
2024-05-09T13:40:36.177Z,41.74
2024-05-09T13:43:04.546Z,41.68
2024-05-09T13:45:31.947Z,41.63
2024-05-09T13:47:59.250Z,41.63
2024-05-09T13:50:33.974Z,41.59
2024-05-09T13:53:03.317Z,41.60
2024-05-09T13:55:30.271Z,41.32
2024-05-09T13:58:00.665Z,41.41
2024-05-09T14:00:41.323Z,41.29
2024-05-09T14:03:14.038Z,41.32
2024-05-09T14:05:41.481Z,41.34
2024-05-09T14:08:08.697Z,41.12
2024-05-09T14:10:35.828Z,41.32
2024-05-09T14:13:05.492Z,41.22
2024-05-09T14:15:32.405Z,41.27
2024-05-09T14:17:59.269Z,41.16
2024-05-09T14:20:31.180Z,41.32
2024-05-09T14:23:00.405Z,41.35
2024-05-09T14:25:27.939Z,41.45
2024-05-09T14:27:54.923Z,41.37
2024-05-09T14:30:31.055Z,41.14
2024-05-09T14:33:03.877Z,41.09
2024-05-09T14:35:30.955Z,41.29
2024-05-09T14:37:58.012Z,41.24
2024-05-09T14:40:36.467Z,41.07
2024-05-09T14:43:08.480Z,41.16
2024-05-09T14:45:38.312Z,41.29
2024-05-09T14:48:06.176Z,41.40
2024-05-09T14:50:37.191Z,41.28
2024-05-09T14:53:07.630Z,41.21
2024-05-09T14:55:37.041Z,40.96
2024-05-09T14:58:06.475Z,41.22
2024-05-09T15:00:36.225Z,41.30
2024-05-09T15:03:07.041Z,41.24
2024-05-09T15:05:33.997Z,41.17
2024-05-09T15:08:01.036Z,41.22
2024-05-09T15:10:34.511Z,41.32
2024-05-09T15:13:03.731Z,41.29
2024-05-09T15:15:31.159Z,41.15
2024-05-09T15:17:58.683Z,41.07
2024-05-09T15:20:34.568Z,41.34
2024-05-09T15:23:04.499Z,41.42
2024-05-09T15:25:31.422Z,41.27
2024-05-09T15:27:58.548Z,41.12
2024-05-09T15:30:31.614Z,41.21
2024-05-09T15:33:01.168Z,41.00
2024-05-09T15:35:31.203Z,40.82
2024-05-09T15:37:58.249Z,40.87
2024-05-09T15:40:34.493Z,40.95
2024-05-09T15:43:06.288Z,40.68
2024-05-09T15:45:34.393Z,40.72
2024-05-09T15:48:02.612Z,40.86
2024-05-09T15:50:37.984Z,40.86
2024-05-09T15:53:08.718Z,40.75
2024-05-09T15:55:36.490Z,40.86
2024-05-09T15:58:04.877Z,40.78
2024-05-09T16:00:37.962Z,40.63
2024-05-09T16:03:08.789Z,40.78
2024-05-09T16:05:38.681Z,40.61
2024-05-09T16:08:07.287Z,40.50
2024-05-09T16:10:35.217Z,40.77
2024-05-09T16:13:03.689Z,40.85
2024-05-09T16:15:31.182Z,40.77
2024-05-09T16:17:58.371Z,40.83
2024-05-09T16:20:34.288Z,40.59
2024-05-09T16:23:09.411Z,40.84
2024-05-09T16:25:37.534Z,40.62
2024-05-09T16:28:08.686Z,41.06
2024-05-09T16:30:37.672Z,40.83
2024-05-09T16:33:05.854Z,40.60
2024-05-09T16:35:33.160Z,40.53
2024-05-09T16:38:01.532Z,40.54
2024-05-09T16:40:37.848Z,40.62
2024-05-09T16:43:08.091Z,40.67
2024-05-09T16:45:36.024Z,40.71
2024-05-09T16:48:03.652Z,40.60
2024-05-09T16:50:33.745Z,40.47
2024-05-09T16:53:02.362Z,40.60
2024-05-09T16:55:31.942Z,40.67
2024-05-09T16:57:59.159Z,40.52
2024-05-09T17:00:36.179Z,40.63
2024-05-09T17:03:09.736Z,40.75
2024-05-09T17:05:37.354Z,40.82
2024-05-09T17:08:05.645Z,40.60
2024-05-09T17:10:35.648Z,40.77
2024-05-09T17:13:04.758Z,40.77
2024-05-09T17:15:33.399Z,40.66
2024-05-09T17:18:01.814Z,40.81
2024-05-09T17:20:33.553Z,40.61
2024-05-09T17:23:05.516Z,40.82
2024-05-09T17:25:35.682Z,40.43
2024-05-09T17:28:02.813Z,40.62
2024-05-09T17:30:35.364Z,40.63
2024-05-09T17:33:05.718Z,40.72
2024-05-09T17:35:32.932Z,40.52
2024-05-09T17:37:59.914Z,40.73
2024-05-09T17:40:33.248Z,40.59
2024-05-09T17:43:06.224Z,40.65
2024-05-09T17:45:34.172Z,40.56
2024-05-09T17:48:01.679Z,40.73
2024-05-09T17:50:35.225Z,40.70
2024-05-09T17:53:04.811Z,40.81
2024-05-09T17:55:31.924Z,40.89
2024-05-09T17:57:59.039Z,40.71
2024-05-09T18:00:36.999Z,40.96
2024-05-09T18:03:08.060Z,40.81
2024-05-09T18:05:36.715Z,40.69
2024-05-09T18:08:04.801Z,40.61
2024-05-09T18:10:36.720Z,40.85
2024-05-09T18:13:06.773Z,40.86
2024-05-09T18:15:37.009Z,40.71
2024-05-09T18:18:05.148Z,40.69
2024-05-09T18:20:40.692Z,40.93
2024-05-09T18:23:12.558Z,40.94
2024-05-09T18:25:40.497Z,40.71
2024-05-09T18:28:08.347Z,40.76
2024-05-09T18:30:39.190Z,41.02
2024-05-09T18:33:07.993Z,40.55
2024-05-09T18:35:35.736Z,40.65
2024-05-09T18:38:02.934Z,40.71
2024-05-09T18:40:34.465Z,40.87
2024-05-09T18:43:06.867Z,40.87
2024-05-09T18:45:38.816Z,40.70
2024-05-09T18:48:08.069Z,40.73
2024-05-09T18:50:38.722Z,40.78
2024-05-09T18:53:08.531Z,40.76
2024-05-09T18:55:35.582Z,40.94
2024-05-09T18:58:03.051Z,40.88
2024-05-09T19:00:35.779Z,40.89
2024-05-09T19:03:11.096Z,40.81
2024-05-09T19:05:40.706Z,40.87
2024-05-09T19:08:08.945Z,40.73
2024-05-09T19:10:38.924Z,40.73
2024-05-09T19:13:10.529Z,40.73
2024-05-09T19:15:40.354Z,40.67
2024-05-09T19:18:12.076Z,40.80
2024-05-09T19:20:39.573Z,40.62
2024-05-09T19:23:07.171Z,40.87
2024-05-09T19:25:34.771Z,40.81
2024-05-09T19:28:02.414Z,40.75
2024-05-09T19:30:37.308Z,40.77
2024-05-09T19:33:12.727Z,40.92
2024-05-09T19:35:40.795Z,40.86
2024-05-09T19:38:07.897Z,40.99
2024-05-09T19:40:35.548Z,40.80
2024-05-09T19:43:04.000Z,40.90
2024-05-09T19:45:31.480Z,40.72
2024-05-09T19:47:58.835Z,40.70
2024-05-09T19:50:36.982Z,40.73
2024-05-09T19:53:09.711Z,40.61
2024-05-09T19:55:36.801Z,40.78
2024-05-09T19:58:05.562Z,40.91
2024-05-09T20:00:36.352Z,40.87
2024-05-09T20:03:06.001Z,40.77
2024-05-09T20:05:36.440Z,40.88
2024-05-09T20:08:04.481Z,40.84
2024-05-09T20:10:33.702Z,40.77
2024-05-09T20:13:03.208Z,40.72
2024-05-09T20:15:30.853Z,40.82
2024-05-09T20:17:57.889Z,41.02
2024-05-09T20:20:33.617Z,40.70
2024-05-09T20:23:07.941Z,40.73
2024-05-09T20:25:34.872Z,40.80
2024-05-09T20:28:01.916Z,41.00
2024-05-09T20:30:32.564Z,40.95
2024-05-09T20:33:03.246Z,40.81
2024-05-09T20:35:31.174Z,40.90
2024-05-09T20:37:58.921Z,40.72
2024-05-09T20:40:32.952Z,40.82
2024-05-09T20:43:03.885Z,41.06
2024-05-09T20:45:30.913Z,40.82
2024-05-09T20:47:57.980Z,40.99
2024-05-09T20:50:35.579Z,40.81
2024-05-09T20:53:08.171Z,40.83
2024-05-09T20:55:37.610Z,40.98
2024-05-09T20:58:04.977Z,40.88
2024-05-09T21:00:39.050Z,40.95
2024-05-09T21:03:09.898Z,40.78
2024-05-09T21:05:37.362Z,40.87
2024-05-09T21:08:04.796Z,40.86
2024-05-09T21:10:33.155Z,40.81
2024-05-09T21:13:04.385Z,40.81
2024-05-09T21:15:31.953Z,40.86
2024-05-09T21:18:00.420Z,40.80
2024-05-09T21:20:31.407Z,40.84
2024-05-09T21:23:00.335Z,40.74
2024-05-09T21:25:27.358Z,40.83
2024-05-09T21:27:54.434Z,40.71
2024-05-09T21:30:32.634Z,40.77
2024-05-09T21:33:07.987Z,40.71
2024-05-09T21:35:35.114Z,40.80
2024-05-09T21:38:02.015Z,40.91
2024-05-09T21:40:34.292Z,40.79
2024-05-09T21:43:03.105Z,40.79
2024-05-09T21:45:33.703Z,40.86
2024-05-09T21:48:02.983Z,40.73
2024-05-09T21:50:36.980Z,40.73
2024-05-09T21:53:07.619Z,40.92
2024-05-09T21:55:34.629Z,40.96
2024-05-09T21:58:01.570Z,40.98
2024-05-09T22:00:35.281Z,40.92
2024-05-09T22:03:08.469Z,40.68
2024-05-09T22:05:36.177Z,40.96
2024-05-09T22:08:03.798Z,40.80
2024-05-09T22:10:34.763Z,41.06
2024-05-09T22:13:03.574Z,41.02
2024-05-09T22:15:31.743Z,40.87
2024-05-09T22:17:58.671Z,40.95
2024-05-09T22:20:34.538Z,40.91
2024-05-09T22:23:05.119Z,41.03
2024-05-09T22:25:32.734Z,40.98
2024-05-09T22:28:00.338Z,40.82
2024-05-09T22:30:34.633Z,40.97
2024-05-09T22:33:05.968Z,40.76
2024-05-09T22:35:35.550Z,40.62
2024-05-09T22:38:02.454Z,40.80
2024-05-09T22:40:38.851Z,40.88
2024-05-09T22:43:16.276Z,40.84
2024-05-09T22:45:43.231Z,41.00
2024-05-09T22:48:10.363Z,40.89
2024-05-09T22:50:40.345Z,40.81
2024-05-09T22:53:07.161Z,40.85
2024-05-09T22:55:34.013Z,40.84
2024-05-09T22:58:00.867Z,40.91
2024-05-09T23:00:31.706Z,41.00
2024-05-09T23:03:00.953Z,40.68
2024-05-09T23:05:28.433Z,40.99
2024-05-09T23:07:58.024Z,40.72
2024-05-09T23:10:32.011Z,40.84
2024-05-09T23:13:03.591Z,40.71
2024-05-09T23:15:30.691Z,40.99
2024-05-09T23:17:58.221Z,40.73
2024-05-09T23:20:35.461Z,40.87
2024-05-09T23:23:10.174Z,40.81
2024-05-09T23:25:38.970Z,40.75
2024-05-09T23:28:06.420Z,40.85
2024-05-09T23:30:38.179Z,40.95
2024-05-09T23:33:07.843Z,40.92
2024-05-09T23:35:34.959Z,41.01
2024-05-09T23:38:01.813Z,40.68
2024-05-09T23:40:38.432Z,40.75
2024-05-09T23:43:07.882Z,40.99
2024-05-09T23:45:35.081Z,40.89
2024-05-09T23:48:02.307Z,40.68
2024-05-09T23:50:34.820Z,40.74
2024-05-09T23:53:05.063Z,40.71
2024-05-09T23:55:34.712Z,40.85
2024-05-09T23:58:01.631Z,40.96
